Time;durP1;ratioP1;P1;durP2;ratioP2;P2;SDS_P1;SDS_P2;PMS_P1;PMS_P2;Temp;Humidity;BMP_temperature;BMP_pressure;BME280_temperature;BME280_humidity;BME280_pressure;Samples;Min_cycle;Max_cycle;Signal;HPM_P1;HPM_P2
2023/07/08 00:03:53;;;;;;;0.80;0.38;;;;;;;24.84;100.00;101785.00;10453100;28;20115;-82
2023/07/08 00:08:55;;;;;;;0.17;0.15;;;;;;;25.20;100.00;101766.72;10437617;28;20041;-81
2023/07/08 00:13:57;;;;;;;0.00;0.00;;;;;;;25.25;100.00;101763.94;10453338;28;20495;-81
2023/07/08 00:18:59;;;;;;;0.32;0.30;;;;;;;24.79;100.00;101760.53;10452304;28;20542;-81
2023/07/08 00:24:01;;;;;;;0.00;0.00;;;;;;;25.26;100.00;101756.03;10437358;28;20119;-81
2023/07/08 00:29:03;;;;;;;0.05;0.00;;;;;;;25.36;100.00;101754.03;10460450;28;20055;-81
2023/07/08 00:34:05;;;;;;;0.80;0.32;;;;;;;24.61;100.00;101757.31;10451263;28;20122;-81
2023/07/08 00:39:17;;;;;;;0.28;0.28;;;;;;;24.93;100.00;101750.56;10438257;28;20051;-81
2023/07/08 00:44:18;;;;;;;0.00;0.00;;;;;;;24.93;100.00;101747.09;10423979;28;20041;-81
2023/07/08 00:49:38;;;;;;;0.00;0.00;;;;;;;24.80;100.00;101746.47;10433127;28;20045;-81
2023/07/08 00:54:41;;;;;;;0.00;0.00;;;;;;;24.71;100.00;101743.09;10437166;28;20060;-82
2023/07/08 00:59:47;;;;;;;0.00;0.00;;;;;;;24.20;100.00;101740.53;10450415;28;20522;-81
2023/07/08 01:05:04;;;;;;;0.13;0.10;;;;;;;24.85;100.00;101734.03;10426992;28;20072;-81
2023/07/08 01:10:12;;;;;;;0.10;0.10;;;;;;;24.33;100.00;101736.78;10445993;28;20048;-81
2023/07/08 01:15:15;;;;;;;0.00;0.00;;;;;;;23.97;100.00;101726.00;10430419;28;20127;-81
2023/07/08 01:20:16;;;;;;;0.40;0.10;;;;;;;24.28;100.00;101728.09;10451409;28;20128;-81
2023/07/08 01:25:18;;;;;;;0.10;0.05;;;;;;;24.06;100.00;101728.50;10438650;28;20135;-81
2023/07/08 01:30:20;;;;;;;0.08;0.08;;;;;;;23.79;100.00;101723.66;10442518;28;20061;-81
2023/07/08 01:35:22;;;;;;;0.00;0.00;;;;;;;23.91;100.00;101718.19;10460697;28;20456;-81
2023/07/08 01:40:31;;;;;;;0.70;0.22;;;;;;;24.43;100.00;101710.28;10442127;28;20051;-81
2023/07/08 01:45:38;;;;;;;5.20;1.08;;;;;;;24.19;100.00;101707.19;10441966;28;20045;-81
2023/07/08 01:50:46;;;;;;;0.10;0.10;;;;;;;24.45;100.00;101706.72;10458121;28;20515;-81
2023/07/08 01:55:48;;;;;;;0.25;0.10;;;;;;;24.48;100.00;101704.03;10452152;28;20055;-81
2023/07/08 02:00:50;;;;;;;0.85;0.10;;;;;;;23.66;100.00;101697.53;10455794;28;20037;-81
2023/07/08 02:05:52;;;;;;;0.20;0.10;;;;;;;24.51;100.00;101687.28;10443302;28;20041;-80
2023/07/08 02:10:58;;;;;;;0.28;0.28;;;;;;;23.73;100.00;101682.53;10457761;28;20487;-80
2023/07/08 02:16:00;;;;;;;0.00;0.00;;;;;;;24.06;100.00;101681.13;10429716;28;20446;-81
2023/07/08 02:21:02;;;;;;;0.10;0.10;;;;;;;23.95;100.00;101680.41;10441023;28;20040;-81
2023/07/08 02:26:03;;;;;;;0.10;0.10;;;;;;;23.92;100.00;101677.84;10459631;28;20079;-81
2023/07/08 02:31:05;;;;;;;0.10;0.10;;;;;;;23.57;100.00;101671.38;10442524;28;20488;-82
2023/07/08 02:36:07;;;;;;;0.52;0.13;;;;;;;23.29;100.00;101656.06;10442546;28;20095;-82
2023/07/08 02:41:08;;;;;;;0.03;0.03;;;;;;;24.29;100.00;101661.38;10456751;28;20041;-81
2023/07/08 02:46:10;;;;;;;0.00;0.00;;;;;;;24.24;100.00;101664.09;10438729;28;20045;-80
2023/07/08 02:51:12;;;;;;;0.22;0.22;;;;;;;24.23;100.00;101667.63;10437672;28;20522;-81
2023/07/08 02:56:14;;;;;;;0.08;0.08;;;;;;;24.32;100.00;101661.31;10454909;28;20144;-82
2023/07/08 03:01:17;;;;;;;0.10;0.10;;;;;;;23.83;100.00;101659.56;10469744;28;20053;-81
2023/07/08 03:06:19;;;;;;;0.20;0.10;;;;;;;23.38;100.00;101648.03;10424252;28;20088;-81
2023/07/08 03:11:21;;;;;;;1.27;0.22;;;;;;;23.08;100.00;101642.31;10434102;28;20061;-81
2023/07/08 03:16:22;;;;;;;0.00;0.00;;;;;;;23.39;100.00;101646.25;10451674;28;20064;-82
2023/07/08 03:21:24;;;;;;;0.75;0.35;;;;;;;24.02;100.00;101647.81;10437052;28;20048;-82
2023/07/08 03:26:26;;;;;;;0.10;0.10;;;;;;;24.45;100.00;101640.00;10438020;28;20483;-81
2023/07/08 03:31:32;;;;;;;0.00;0.00;;;;;;;23.60;100.00;101642.41;10455848;28;20115;-82
2023/07/08 03:36:48;;;;;;;0.30;0.15;;;;;;;23.84;100.00;101642.88;10418355;28;20087;-82
2023/07/08 03:41:51;;;;;;;0.00;0.00;;;;;;;24.14;100.00;101653.78;10380039;28;20132;-81
2023/07/08 03:46:54;;;;;;;0.00;0.00;;;;;;;24.07;100.00;101645.13;10409337;28;20088;-81
2023/07/08 03:51:56;;;;;;;0.00;0.00;;;;;;;23.88;100.00;101655.06;10427207;28;20073;-82
2023/07/08 03:56:58;;;;;;;0.52;0.10;;;;;;;23.65;100.00;101652.84;10411705;28;20048;-82
2023/07/08 04:02:02;;;;;;;0.00;0.00;;;;;;;23.46;100.00;101647.88;10412709;28;20053;-82
2023/07/08 04:07:05;;;;;;;0.13;0.08;;;;;;;24.12;100.00;101663.47;10395774;28;20048;-81
2023/07/08 04:12:08;;;;;;;0.00;0.00;;;;;;;24.32;100.00;101670.97;10420704;28;20042;-81
2023/07/08 04:17:11;;;;;;;0.00;0.00;;;;;;;23.85;100.00;101676.19;10396727;28;20060;-81
2023/07/08 04:22:12;;;;;;;0.00;0.00;;;;;;;23.04;100.00;101677.44;10412998;28;20493;-81
2023/07/08 04:27:16;;;;;;;0.00;0.00;;;;;;;23.90;100.00;101679.59;10394969;28;20081;-81
2023/07/08 04:32:18;;;;;;;0.10;0.10;;;;;;;23.77;100.00;101679.84;10429056;28;20061;-81
2023/07/08 04:37:21;;;;;;;0.10;0.10;;;;;;;25.27;100.00;101667.22;10410586;28;20136;-81
2023/07/08 04:42:23;;;;;;;0.22;0.15;;;;;;;24.94;100.00;101675.88;10411643;28;20053;-81
2023/07/08 04:47:29;;;;;;;0.00;0.00;;;;;;;24.08;100.00;101681.97;10403504;28;20041;-82
2023/07/08 04:52:30;;;;;;;0.10;0.10;;;;;;;24.62;100.00;101690.56;10396568;28;20460;-82
2023/07/08 04:57:32;;;;;;;0.10;0.10;;;;;;;25.21;100.00;101677.91;10381466;28;20057;-81
2023/07/08 05:02:34;;;;;;;0.00;0.00;;;;;;;24.14;100.00;101677.47;10385437;28;20044;-82
2023/07/08 05:07:35;;;;;;;0.47;0.08;;;;;;;25.26;100.00;101676.91;10415534;28;20476;-82
2023/07/08 05:12:37;;;;;;;0.30;0.20;;;;;;;25.50;100.00;101679.91;10422931;28;20047;-82
2023/07/08 05:17:39;;;;;;;0.20;0.05;;;;;;;25.56;100.00;101677.13;10422072;28;20037;-82
2023/07/08 05:22:42;;;;;;;0.10;0.00;;;;;;;24.87;100.00;101683.03;10399771;28;20464;-82
2023/07/08 05:27:44;;;;;;;0.10;0.10;;;;;;;25.03;100.00;101670.41;10410215;28;20053;-82
2023/07/08 05:32:46;;;;;;;0.32;0.10;;;;;;;25.58;100.00;101662.09;10405904;28;20045;-82
2023/07/08 05:37:47;;;;;;;0.20;0.20;;;;;;;25.21;100.00;101662.94;10418173;28;20046;-82
2023/07/08 05:42:49;;;;;;;0.28;0.28;;;;;;;25.50;100.00;101669.34;10418824;28;20052;-82
2023/07/08 05:47:51;;;;;;;0.05;0.05;;;;;;;25.01;100.00;101671.34;10416226;28;20076;-81
2023/07/08 05:52:53;;;;;;;0.00;0.00;;;;;;;25.33;100.00;101657.41;10407066;28;20048;-82
2023/07/08 05:57:54;;;;;;;0.10;0.00;;;;;;;25.79;100.00;101654.56;10421891;28;20048;-83
2023/07/08 06:02:56;;;;;;;0.10;0.10;;;;;;;25.71;100.00;101661.78;10410120;28;20042;-83
2023/07/08 06:07:58;;;;;;;0.10;0.10;;;;;;;25.70;100.00;101660.06;10402719;28;20049;-82
2023/07/08 06:12:59;;;;;;;0.10;0.00;;;;;;;26.43;100.00;101674.84;10398830;28;20079;-82
2023/07/08 06:18:02;;;;;;;0.73;0.30;;;;;;;26.23;100.00;101665.72;10430856;28;20037;-82
2023/07/08 06:23:04;;;;;;;0.28;0.28;;;;;;;26.32;100.00;101663.72;10418380;28;20049;-82
2023/07/08 06:28:05;;;;;;;0.10;0.10;;;;;;;26.79;100.00;101653.56;10398307;28;20065;-82
2023/07/08 06:33:07;;;;;;;0.10;0.10;;;;;;;26.38;100.00;101666.19;10403807;28;20045;-82
2023/07/08 06:38:09;;;;;;;0.73;0.40;;;;;;;27.16;100.00;101652.41;10435098;28;20048;-82
2023/07/08 06:43:11;;;;;;;0.17;0.13;;;;;;;27.03;100.00;101659.84;10411148;28;20041;-83
2023/07/08 06:48:30;;;;;;;0.40;0.30;;;;;;;27.49;100.00;101668.16;10434148;28;20038;-82
2023/07/08 06:53:32;;;;;;;1.13;0.40;;;;;;;28.16;100.00;101677.34;10404949;28;20049;-82
2023/07/08 06:58:34;;;;;;;0.00;0.00;;;;;;;28.30;100.00;101668.88;10414606;28;20034;-82
2023/07/08 07:03:36;;;;;;;0.10;0.10;;;;;;;28.88;100.00;101669.41;10402180;28;20048;-82
2023/07/08 07:08:37;;;;;;;0.38;0.30;;;;;;;29.41;100.00;101665.56;10420235;28;20042;-83
2023/07/08 07:13:39;;;;;;;0.30;0.15;;;;;;;29.89;100.00;101664.38;10420684;28;20064;-83
2023/07/08 07:18:41;;;;;;;0.43;0.43;;;;;;;31.66;100.00;101660.66;10423724;28;20038;-82
2023/07/08 07:23:42;;;;;;;1.35;0.20;;;;;;;32.49;100.00;101652.72;10399425;28;20057;-82
2023/07/08 07:28:44;;;;;;;0.25;0.20;;;;;;;32.72;99.80;101646.97;10431273;28;20468;-82
2023/07/08 07:33:45;;;;;;;0.25;0.20;;;;;;;31.73;97.71;101667.38;10405139;28;20065;-83
2023/07/08 07:38:47;;;;;;;0.13;0.13;;;;;;;33.96;96.98;101654.97;10439800;28;20038;-83
2023/07/08 07:43:49;;;;;;;1.00;0.43;;;;;;;34.01;98.32;101660.91;10437393;28;20065;-81
2023/07/08 07:48:50;;;;;;;0.00;0.00;;;;;;;34.26;99.42;101667.41;10396051;28;20048;-83
2023/07/08 07:53:52;;;;;;;0.10;0.10;;;;;;;33.93;93.97;101655.16;10401866;28;20507;-83
2023/07/08 07:58:54;;;;;;;0.17;0.15;;;;;;;34.84;97.88;101652.13;10400112;28;20118;-83
2023/07/08 08:03:56;;;;;;;0.03;0.03;;;;;;;33.79;94.56;101651.50;10411421;28;20538;-84
2023/07/08 08:08:57;;;;;;;0.10;0.10;;;;;;;33.58;90.18;101655.47;10426939;28;20087;-83
2023/07/08 08:14:00;;;;;;;0.03;0.03;;;;;;;34.15;92.92;101660.91;10415126;28;20060;-84
2023/07/08 08:19:02;;;;;;;0.00;0.00;;;;;;;34.37;94.76;101659.56;10394437;28;20052;-83
2023/07/08 08:24:07;;;;;;;0.00;0.00;;;;;;;34.60;88.59;101652.78;10399184;28;20049;-83
2023/07/08 08:29:09;;;;;;;0.75;0.45;;;;;;;35.20;86.96;101641.75;10439579;28;20060;-84
2023/07/08 08:34:10;;;;;;;0.20;0.20;;;;;;;35.36;91.34;101647.81;10396791;28;20038;-83
2023/07/08 08:39:13;;;;;;;0.75;0.10;;;;;;;35.32;85.19;101646.31;10389549;28;20048;-83
2023/07/08 08:44:20;;;;;;;0.20;0.20;;;;;;;35.56;87.13;101650.97;10403017;28;20051;-83
2023/07/08 08:49:37;;;;;;;0.40;0.40;;;;;;;35.28;86.12;101650.16;10410870;28;20116;-84
2023/07/08 08:54:39;;;;;;;0.30;0.20;;;;;;;36.24;86.18;101653.44;10406160;28;20049;-83
2023/07/08 08:59:49;;;;;;;0.30;0.30;;;;;;;36.18;90.57;101660.09;10411229;28;20037;-83
2023/07/08 09:04:50;;;;;;;0.30;0.20;;;;;;;35.81;85.21;101663.53;10421542;28;20056;-83
2023/07/08 09:10:04;;;;;;;0.10;0.10;;;;;;;36.16;87.91;101662.91;10399571;28;20065;-84
2023/07/08 09:15:13;;;;;;;0.20;0.20;;;;;;;37.09;82.63;101660.72;10413798;28;20053;-83
2023/07/08 09:20:30;;;;;;;0.43;0.28;;;;;;;35.47;76.67;101660.50;10420138;28;20041;-83
2023/07/08 09:25:37;;;;;;;0.47;0.27;;;;;;;35.26;70.25;101650.25;10399074;28;20120;-82
2023/07/08 09:30:39;;;;;;;0.32;0.32;;;;;;;36.87;71.83;101654.25;10397850;28;20427;-83
2023/07/08 09:35:45;;;;;;;1.70;0.50;;;;;;;36.65;78.71;101658.53;10415440;28;20080;-83
2023/07/08 09:40:51;;;;;;;0.17;0.17;;;;;;;36.25;72.56;101656.00;10462771;28;20037;-83
2023/07/08 09:45:57;;;;;;;0.43;0.43;;;;;;;37.14;75.75;101645.09;10415794;28;20069;-84
2023/07/08 09:51:00;;;;;;;0.95;0.40;;;;;;;37.50;76.17;101642.44;10430868;28;20064;-83
2023/07/08 09:56:04;;;;;;;1.20;0.73;;;;;;;38.17;79.93;101647.00;10450946;28;20430;-81
2023/07/08 10:01:12;;;;;;;5.22;0.50;;;;;;;37.46;72.60;101647.19;10453043;28;20067;-83
2023/07/08 10:06:25;;;;;;;0.15;0.15;;;;;;;36.63;73.55;101655.09;10421707;28;20052;-83
2023/07/08 10:11:30;;;;;;;0.15;0.10;;;;;;;37.22;69.51;101655.28;10402994;28;20056;-83
2023/07/08 10:16:34;;;;;;;0.55;0.30;;;;;;;38.76;74.35;101647.66;10404835;28;20534;-83
2023/07/08 10:21:48;;;;;;;0.57;0.30;;;;;;;38.63;73.00;101658.59;10428103;28;20071;-84
2023/07/08 10:27:06;;;;;;;1.05;0.57;;;;;;;38.67;71.28;101653.81;10469366;28;20087;-83
2023/07/08 10:32:34;;;;;;;1.17;0.65;;;;;;;39.39;70.98;101652.31;10447846;28;20043;-81
2023/07/08 10:37:57;;;;;;;0.10;0.10;;;;;;;39.23;80.15;101651.91;10385612;28;20117;-83
2023/07/08 10:43:15;;;;;;;0.47;0.30;;;;;;;38.00;68.33;101655.59;10418281;28;20120;-80
2023/07/08 10:48:47;;;;;;;2.00;0.35;;;;;;;38.99;72.69;101652.97;10419495;28;20037;-83
2023/07/08 10:53:55;;;;;;;1.40;0.40;;;;;;;38.02;67.64;101656.31;10424460;28;20045;-83
2023/07/08 10:59:52;;;;;;;0.47;0.43;;;;;;;38.58;66.82;101658.09;10423263;28;20045;-83
2023/07/08 11:05:22;;;;;;;1.17;0.82;;;;;;;38.15;70.47;101648.13;10333792;28;20049;-81
2023/07/08 11:10:36;;;;;;;0.32;0.30;;;;;;;38.79;68.88;101642.06;10469591;28;20068;-81
2023/07/08 11:15:59;;;;;;;0.32;0.32;;;;;;;38.85;68.44;101638.84;10418266;28;20045;-84
2023/07/08 11:21:10;;;;;;;0.20;0.20;;;;;;;37.93;72.35;101633.69;10429171;28;20045;-83
2023/07/08 11:26:50;;;;;;;0.80;0.60;;;;;;;38.09;71.17;101625.28;10444842;28;20052;-81
2023/07/08 11:31:54;;;;;;;0.20;0.20;;;;;;;38.76;68.14;101619.88;10404980;28;20042;-80
2023/07/08 11:36:57;;;;;;;0.10;0.10;;;;;;;38.98;74.77;101613.59;10396114;28;20046;-81
2023/07/08 11:42:23;;;;;;;0.30;0.20;;;;;;;39.02;69.93;101621.25;10427618;28;20049;-82
2023/07/08 11:47:57;;;;;;;0.35;0.13;;;;;;;38.08;66.07;101621.72;10405871;28;20503;-81
2023/07/08 11:53:10;;;;;;;0.47;0.47;;;;;;;39.46;65.83;101615.78;10395197;28;20061;-83
2023/07/08 11:58:21;;;;;;;0.40;0.30;;;;;;;39.00;68.14;101606.22;10416242;28;20407;-84
2023/07/08 12:03:34;;;;;;;1.33;0.63;;;;;;;38.39;65.95;101607.63;10416329;28;20046;-83
2023/07/08 12:08:41;;;;;;;0.10;0.10;;;;;;;38.31;64.77;101615.50;10397795;28;20046;-83
2023/07/08 12:13:43;;;;;;;0.45;0.30;;;;;;;38.83;65.35;101603.13;10398471;28;20136;-83
2023/07/08 12:18:47;;;;;;;1.02;0.35;;;;;;;39.84;70.24;101605.34;10382289;28;20049;-83
2023/07/08 12:23:49;;;;;;;0.65;0.40;;;;;;;38.75;59.89;101594.81;10433134;28;20140;-83
2023/07/08 12:28:50;;;;;;;0.40;0.38;;;;;;;39.26;64.41;101595.94;10441070;28;20399;-83
2023/07/08 12:33:52;;;;;;;0.25;0.10;;;;;;;39.22;66.51;101598.97;10440838;28;20492;-83
2023/07/08 12:39:00;;;;;;;0.20;0.10;;;;;;;39.18;65.71;101598.38;10438862;28;20050;-83
2023/07/08 12:44:02;;;;;;;;;;;;;;;38.18;66.12;101594.91;10430272;28;20080;-83
2023/07/08 12:49:03;;;;;;;1.23;0.65;;;;;;;39.01;68.62;101586.38;10446690;28;19921;-84
2023/07/08 12:54:09;;;;;;;0.75;0.25;;;;;;;38.77;61.67;101590.16;10399476;28;20045;-84
2023/07/08 12:59:18;;;;;;;0.30;0.30;;;;;;;39.40;68.68;101592.06;10404838;28;20073;-84
2023/07/08 13:04:20;;;;;;;0.10;0.10;;;;;;;38.25;64.18;101582.66;10452935;28;20526;-83
2023/07/08 13:09:42;;;;;;;0.15;0.15;;;;;;;38.92;69.25;101581.75;10385692;28;20041;-84
2023/07/08 13:14:45;;;;;;;0.75;0.63;;;;;;;38.93;70.25;101572.69;10442009;28;20144;-83
2023/07/08 13:19:47;;;;;;;0.43;0.30;;;;;;;39.12;63.17;101567.47;10465144;28;20182;-84
2023/07/08 13:24:59;;;;;;;0.20;0.20;;;;;;;39.27;63.92;101567.16;10413028;28;20064;-84
2023/07/08 13:30:19;;;;;;;0.98;0.40;;;;;;;39.39;56.51;101567.94;10406966;28;20051;-84
2023/07/08 13:35:42;;;;;;;0.45;0.40;;;;;;;38.42;61.71;101569.69;10440048;28;20048;-83
2023/07/08 13:40:52;;;;;;;0.47;0.40;;;;;;;38.96;64.56;101577.84;10434765;28;20055;-83
2023/07/08 13:45:54;;;;;;;0.20;0.20;;;;;;;38.55;62.17;101583.00;10436192;28;20041;-83
2023/07/08 13:51:08;;;;;;;0.85;0.60;;;;;;;39.16;68.88;101576.97;10441159;28;20072;-83
2023/07/08 13:56:19;;;;;;;0.10;0.10;;;;;;;39.06;67.38;101570.66;10415498;28;20044;-84
2023/07/08 14:01:24;;;;;;;0.77;0.57;;;;;;;37.89;67.60;101565.84;10410156;28;20049;-83
2023/07/08 14:06:32;;;;;;;0.10;0.10;;;;;;;39.39;61.80;101568.78;10422065;28;20045;-83
2023/07/08 14:11:36;;;;;;;1.20;0.68;;;;;;;39.28;64.41;101571.56;10420398;28;20045;-83
2023/07/08 14:16:48;;;;;;;0.10;0.10;;;;;;;39.43;60.88;101569.34;10423985;28;20148;-83
2023/07/08 14:21:56;;;;;;;0.25;0.25;;;;;;;39.16;57.94;101566.19;10434295;28;20032;-83
2023/07/08 14:26:57;;;;;;;0.45;0.43;;;;;;;39.06;57.12;101557.19;10424374;28;20463;-84
2023/07/08 14:31:59;;;;;;;0.57;0.30;;;;;;;38.98;57.60;101565.09;10402993;28;20041;-84
2023/07/08 14:37:01;;;;;;;0.20;0.20;;;;;;;38.72;55.48;101560.88;10420378;28;20049;-83
2023/07/08 14:42:05;;;;;;;0.20;0.10;;;;;;;38.73;57.53;101556.38;10434808;28;20076;-84
2023/07/08 14:47:12;;;;;;;0.28;0.20;;;;;;;38.90;64.40;101562.22;10413723;28;20052;-84
2023/07/08 14:52:14;;;;;;;0.40;0.20;;;;;;;38.58;60.11;101557.66;10419998;28;20034;-83
2023/07/08 14:57:17;;;;;;;0.10;0.10;;;;;;;38.49;58.71;101559.28;10401932;28;20045;-83
2023/07/08 15:02:21;;;;;;;0.15;0.15;;;;;;;38.18;59.01;101565.31;10426631;28;20051;-83
2023/07/08 15:07:23;;;;;;;1.88;0.77;;;;;;;38.82;63.61;101566.41;10413274;28;20087;-84
2023/07/08 15:12:24;;;;;;;1.05;0.75;;;;;;;38.86;63.03;101562.44;10401255;28;20052;-84
2023/07/08 15:17:26;;;;;;;0.10;0.10;;;;;;;39.14;63.26;101560.06;10436148;28;20103;-83
2023/07/08 15:22:28;;;;;;;0.30;0.30;;;;;;;38.65;63.81;101559.69;10401725;28;20053;-83
2023/07/08 15:27:30;;;;;;;0.25;0.22;;;;;;;38.58;61.21;101557.66;10385583;28;20518;-83
2023/07/08 15:32:31;;;;;;;0.40;0.40;;;;;;;38.35;56.45;101563.13;10424387;28;20059;-84
2023/07/08 15:37:36;;;;;;;1.45;0.90;;;;;;;38.57;56.58;101562.19;10418703;28;20477;-83
2023/07/08 15:42:37;;;;;;;1.00;0.10;;;;;;;38.52;56.79;101553.63;10399804;28;20046;-83
2023/07/08 15:47:39;;;;;;;2.47;1.65;;;;;;;38.59;63.14;101562.06;10417299;28;20049;-83
2023/07/08 15:52:41;;;;;;;0.20;0.20;;;;;;;38.73;65.86;101567.16;10407837;28;20488;-83
2023/07/08 15:57:54;;;;;;;0.10;0.10;;;;;;;38.00;60.52;101556.09;10417826;28;20037;-84
2023/07/08 16:02:58;;;;;;;1.23;0.47;;;;;;;38.09;62.30;101558.03;10400466;28;20060;-83
2023/07/08 16:08:00;;;;;;;0.10;0.10;;;;;;;38.77;61.83;101546.19;10398449;28;20045;-84
2023/07/08 16:13:03;;;;;;;0.10;0.10;;;;;;;38.70;60.48;101559.31;10414852;28;20579;-84
2023/07/08 16:18:11;;;;;;;0.28;0.13;;;;;;;39.06;62.88;101545.56;10398891;28;20048;-84
2023/07/08 16:23:14;;;;;;;0.30;0.20;;;;;;;38.13;54.60;101559.47;10399842;28;20100;-83
2023/07/08 16:28:42;;;;;;;0.20;0.20;;;;;;;38.99;65.28;101547.94;10401308;28;20053;-84
2023/07/08 16:33:45;;;;;;;0.25;0.20;;;;;;;38.39;59.03;101543.03;10423622;28;20060;-83
2023/07/08 16:38:51;;;;;;;0.20;0.10;;;;;;;37.71;62.03;101548.50;10400438;28;20124;-83
2023/07/08 16:43:53;;;;;;;0.03;0.00;;;;;;;38.05;63.33;101546.63;10430073;28;20042;-83
2023/07/08 16:48:55;;;;;;;0.45;0.22;;;;;;;38.11;64.03;101542.59;10419458;28;20046;-83
2023/07/08 16:54:08;;;;;;;0.10;0.10;;;;;;;38.94;68.07;101537.56;10452787;28;20083;-80
2023/07/08 16:59:12;;;;;;;0.65;0.22;;;;;;;38.64;87.76;101535.59;10461817;28;20049;-80
2023/07/08 17:04:14;;;;;;;0.05;0.00;;;;;;;37.78;81.13;101533.59;10443626;28;20041;-81
2023/07/08 17:09:16;;;;;;;0.00;0.00;;;;;;;38.27;80.40;101535.97;10443507;28;20072;-80
2023/07/08 17:14:17;;;;;;;0.20;0.10;;;;;;;38.54;82.17;101533.69;10476345;28;20044;-80
2023/07/08 17:19:19;;;;;;;0.10;0.10;;;;;;;37.91;97.82;101537.03;10440423;28;20045;-80
2023/07/08 17:24:21;;;;;;;0.00;0.00;;;;;;;37.42;100.00;101538.25;10461323;28;20106;-80
2023/07/08 17:29:24;;;;;;;0.00;0.00;;;;;;;36.90;100.00;101527.81;10459016;28;20041;-80
2023/07/08 17:34:26;;;;;;;0.15;0.15;;;;;;;36.65;100.00;101532.38;10460397;28;20483;-81
2023/07/08 17:39:28;;;;;;;0.10;0.10;;;;;;;36.39;100.00;101539.69;10461090;28;20048;-80
2023/07/08 17:44:30;;;;;;;0.00;0.00;;;;;;;36.42;100.00;101533.25;10462107;28;20040;-82
2023/07/08 17:49:31;;;;;;;0.00;0.00;;;;;;;36.88;100.00;101520.88;10459355;28;20048;-83
2023/07/08 17:54:33;;;;;;;0.10;0.00;;;;;;;37.37;100.00;101519.78;10443104;28;20045;-83
2023/07/08 17:59:35;;;;;;;0.00;0.00;;;;;;;37.42;95.88;101514.06;10461709;28;20051;-82
2023/07/08 18:04:36;;;;;;;0.10;0.10;;;;;;;37.22;100.00;101500.31;10459152;28;20049;-82
2023/07/08 18:09:38;;;;;;;0.20;0.10;;;;;;;37.15;100.00;101515.19;10456761;28;20045;-82
2023/07/08 18:14:40;;;;;;;0.00;0.00;;;;;;;37.42;91.45;101519.44;10474145;28;20665;-83
2023/07/08 18:19:42;;;;;;;0.08;0.08;;;;;;;37.21;90.93;101524.63;10457796;28;20462;-83
2023/07/08 18:24:43;;;;;;;0.52;0.20;;;;;;;37.07;95.39;101523.00;10451275;28;20045;-83
2023/07/08 18:29:46;;;;;;;0.20;0.20;;;;;;;36.80;100.00;101529.50;10440454;28;20064;-82
2023/07/08 18:34:48;;;;;;;0.03;0.03;;;;;;;36.66;92.32;101536.78;10448462;28;20060;-82
2023/07/08 18:39:49;;;;;;;0.17;0.10;;;;;;;36.43;91.51;101535.78;10466292;28;20039;-81
2023/07/08 18:44:51;;;;;;;0.00;0.00;;;;;;;36.21;93.58;101541.88;10458148;28;20399;-81
2023/07/08 18:49:53;;;;;;;0.45;0.25;;;;;;;36.09;91.38;101550.81;10439704;28;20056;-81
2023/07/08 18:54:54;;;;;;;0.20;0.10;;;;;;;36.05;100.00;101561.78;10439254;28;20052;-81
2023/07/08 18:59:56;;;;;;;0.73;0.30;;;;;;;35.76;100.00;101573.69;10439359;28;20040;-81
2023/07/08 19:04:58;;;;;;;0.38;0.30;;;;;;;35.44;100.00;101569.66;10456123;28;20483;-81
2023/07/08 19:10:00;;;;;;;0.28;0.28;;;;;;;35.36;100.00;101572.81;10432720;28;20049;-81
2023/07/08 19:15:29;;;;;;;0.52;0.20;;;;;;;34.37;100.00;101578.50;10452311;28;20095;-81
2023/07/08 19:20:36;;;;;;;0.25;0.25;;;;;;;34.23;100.00;101576.66;10438298;28;20048;-81
2023/07/08 19:25:38;;;;;;;0.20;0.17;;;;;;;34.72;100.00;101578.88;10454952;28;20041;-81
2023/07/08 19:30:42;;;;;;;0.43;0.17;;;;;;;34.24;100.00;101584.59;10436246;28;20126;-81
2023/07/08 19:35:46;;;;;;;0.30;0.25;;;;;;;33.67;100.00;101596.16;10447139;28;20087;-81
2023/07/08 19:40:50;;;;;;;0.00;0.00;;;;;;;33.62;100.00;101592.91;10437698;28;20120;-81
2023/07/08 19:45:53;;;;;;;1.08;0.52;;;;;;;33.75;100.00;101609.03;10437506;28;20037;-81
2023/07/08 19:50:55;;;;;;;0.30;0.10;;;;;;;33.67;100.00;101606.84;10454759;28;20419;-81
2023/07/08 19:55:57;;;;;;;0.25;0.20;;;;;;;33.28;100.00;101617.13;10437896;28;20041;-81
2023/07/08 20:00:59;;;;;;;0.47;0.47;;;;;;;33.03;100.00;101626.56;10437245;28;20044;-81
2023/07/08 20:06:25;;;;;;;3.70;0.22;;;;;;;33.03;100.00;101623.03;10452876;28;20051;-81
2023/07/08 20:11:26;;;;;;;0.28;0.20;;;;;;;32.71;100.00;101633.72;10466342;28;20047;-81
2023/07/08 20:16:29;;;;;;;2.30;0.75;;;;;;;32.48;100.00;101633.22;10436589;28;20044;-81
2023/07/08 20:21:30;;;;;;;0.10;0.10;;;;;;;32.37;100.00;101631.13;10446414;28;20084;-81
2023/07/08 20:26:35;;;;;;;0.35;0.30;;;;;;;32.24;100.00;101630.94;10440071;28;20087;-81
2023/07/08 20:31:37;;;;;;;0.30;0.20;;;;;;;31.86;100.00;101639.16;10419897;28;20059;-80
2023/07/08 20:36:38;;;;;;;0.13;0.13;;;;;;;31.76;100.00;101635.28;10457295;28;20547;-80
2023/07/08 20:41:40;;;;;;;0.17;0.17;;;;;;;31.48;100.00;101647.28;10436061;28;20063;-80
2023/07/08 20:46:46;;;;;;;0.10;0.10;;;;;;;31.49;100.00;101651.69;10436469;28;20049;-80
2023/07/08 20:51:48;;;;;;;0.43;0.20;;;;;;;31.32;100.00;101648.06;10445229;28;20045;-80
2023/07/08 20:56:49;;;;;;;0.57;0.30;;;;;;;30.99;100.00;101655.88;10434832;28;20459;-80
2023/07/08 21:01:54;;;;;;;0.40;0.20;;;;;;;30.33;100.00;101658.06;10430640;28;20037;-80
2023/07/08 21:06:55;;;;;;;0.65;0.60;;;;;;;30.27;100.00;101663.63;10435303;28;20575;-80
2023/07/08 21:11:57;;;;;;;0.20;0.20;;;;;;;30.11;100.00;101670.59;10434768;28;20045;-80
2023/07/08 21:16:59;;;;;;;1.05;0.40;;;;;;;30.04;100.00;101652.28;10432361;28;20051;-81
2023/07/08 21:22:00;;;;;;;1.45;0.70;;;;;;;29.89;100.00;101642.28;10436228;28;20080;-81
2023/07/08 21:27:03;;;;;;;0.17;0.15;;;;;;;29.82;100.00;101640.84;10442879;28;20131;-80
2023/07/08 21:32:04;;;;;;;0.28;0.20;;;;;;;29.51;100.00;101650.13;10450668;28;20051;-80
2023/07/08 21:37:06;;;;;;;0.20;0.17;;;;;;;29.84;100.00;101652.22;10434126;28;20087;-80
2023/07/08 21:42:10;;;;;;;0.43;0.43;;;;;;;30.37;100.00;101669.41;10440861;28;20048;-79
2023/07/08 21:47:12;;;;;;;0.43;0.20;;;;;;;29.52;100.00;101662.47;10442266;28;20037;-80
2023/07/08 21:52:13;;;;;;;1.17;1.08;;;;;;;29.41;100.00;101658.44;10458332;28;20064;-80
2023/07/08 21:57:15;;;;;;;0.30;0.30;;;;;;;29.75;100.00;101658.81;10459436;28;20041;-79
2023/07/08 22:02:17;;;;;;;0.93;0.35;;;;;;;29.35;100.00;101663.13;10441876;28;20045;-79
2023/07/08 22:07:18;;;;;;;0.20;0.10;;;;;;;29.93;100.00;101654.53;10455973;28;20438;-79
2023/07/08 22:12:20;;;;;;;0.10;0.08;;;;;;;29.26;100.00;101659.06;10459269;28;20032;-80
2023/07/08 22:17:22;;;;;;;0.20;0.20;;;;;;;29.34;100.00;101656.13;10441268;28;20033;-80
2023/07/08 22:22:24;;;;;;;0.25;0.10;;;;;;;29.38;100.00;101669.19;10469458;28;20033;-80
2023/07/08 22:27:26;;;;;;;0.00;0.00;;;;;;;29.53;100.00;101669.47;10430571;28;20037;-79
2023/07/08 22:32:27;;;;;;;0.10;0.10;;;;;;;29.52;100.00;101675.72;10474072;28;20045;-79
2023/07/08 22:37:29;;;;;;;0.22;0.20;;;;;;;29.45;100.00;101675.13;10440528;28;20079;-79
2023/07/08 22:42:30;;;;;;;0.10;0.10;;;;;;;29.18;100.00;101677.94;10455867;28;20051;-80
2023/07/08 22:47:32;;;;;;;0.63;0.63;;;;;;;28.84;100.00;101694.34;10462934;28;20048;-79
2023/07/08 22:52:36;;;;;;;3.75;0.65;;;;;;;29.09;100.00;101688.94;10444329;28;20087;-79
2023/07/08 22:57:38;;;;;;;0.22;0.22;;;;;;;28.92;100.00;101698.41;10442033;28;20047;-79
2023/07/08 23:02:39;;;;;;;0.10;0.10;;;;;;;27.75;100.00;101714.03;10461244;28;20041;-79
2023/07/08 23:07:41;;;;;;;0.40;0.20;;;;;;;28.30;100.00;101707.78;10454272;28;20118;-79
2023/07/08 23:12:43;;;;;;;0.28;0.25;;;;;;;28.36;100.00;101704.88;10446875;28;20045;-79